createdAt,value
2022-11-15T00:01:21.147Z,62.66
2022-11-15T00:04:45.504Z,62.20
2022-11-15T00:08:09.520Z,61.73
2022-11-15T00:11:33.365Z,61.01
2022-11-15T00:14:57.542Z,60.66
2022-11-15T00:18:21.421Z,60.13
2022-11-15T00:21:45.493Z,59.78
2022-11-15T00:25:10.202Z,59.36
2022-11-15T00:28:34.245Z,57.06
2022-11-15T00:31:58.573Z,56.74
2022-11-15T00:35:24.626Z,57.71
2022-11-15T00:38:48.617Z,58.17
2022-11-15T00:42:12.516Z,64.80
2022-11-15T00:45:36.360Z,71.18
2022-11-15T00:49:00.493Z,69.27
2022-11-15T00:52:24.815Z,66.74
2022-11-15T00:55:48.605Z,64.94
2022-11-15T00:59:12.182Z,64.03
2022-11-15T01:02:36.230Z,62.60
2022-11-15T01:06:02.242Z,61.76
2022-11-15T01:09:26.381Z,61.32
2022-11-15T01:12:51.679Z,60.88
2022-11-15T01:16:17.581Z,60.53
2022-11-15T01:19:41.769Z,60.36
2022-11-15T01:23:05.462Z,59.81
2022-11-15T01:26:29.455Z,59.86
2022-11-15T01:29:53.869Z,59.48
2022-11-15T01:33:18.044Z,57.21
2022-11-15T01:36:42.183Z,57.45
2022-11-15T01:40:07.218Z,59.72
2022-11-15T01:43:32.150Z,66.44
2022-11-15T01:46:56.658Z,69.52
2022-11-15T01:50:22.292Z,66.89
2022-11-15T01:53:47.779Z,64.64
2022-11-15T01:57:13.024Z,63.51
2022-11-15T02:00:36.866Z,62.45
2022-11-15T02:04:01.534Z,61.57
2022-11-15T02:07:25.695Z,60.83
2022-11-15T02:10:49.628Z,60.20
2022-11-15T02:14:15.013Z,59.64
2022-11-15T02:17:55.541Z,58.62
2022-11-15T02:21:23.713Z,56.91
2022-11-15T02:25:01.042Z,59.57
2022-11-15T02:28:41.382Z,59.83
2022-11-15T02:32:07.990Z,63.81
2022-11-15T02:35:37.218Z,70.65
2022-11-15T02:39:05.016Z,68.43
2022-11-15T02:42:49.081Z,65.81
2022-11-15T02:46:16.944Z,63.83
2022-11-15T02:49:42.931Z,62.50
2022-11-15T02:53:07.260Z,61.49
2022-11-15T02:56:31.525Z,60.78
2022-11-15T03:00:03.070Z,60.08
2022-11-15T03:03:41.022Z,59.25
2022-11-15T03:07:08.705Z,57.11
2022-11-15T03:10:40.771Z,57.96
2022-11-15T03:14:08.356Z,59.06
2022-11-15T03:17:36.619Z,58.30
2022-11-15T03:21:02.141Z,59.52
2022-11-15T03:24:27.664Z,61.07
2022-11-15T03:27:53.954Z,72.46
2022-11-15T03:31:35.443Z,74.50
2022-11-15T03:35:00.866Z,70.99
2022-11-15T03:38:26.670Z,68.78
2022-11-15T03:41:53.570Z,66.97
2022-11-15T03:45:19.905Z,65.32
2022-11-15T03:48:45.805Z,63.76
2022-11-15T03:52:11.679Z,63.13
2022-11-15T03:55:35.568Z,62.11
2022-11-15T03:58:59.545Z,61.00
2022-11-15T04:02:23.737Z,60.18
2022-11-15T04:05:47.475Z,59.61
2022-11-15T04:09:11.397Z,57.27
2022-11-15T04:12:37.160Z,57.13
2022-11-15T04:16:01.227Z,60.84
2022-11-15T04:19:44.574Z,67.06
2022-11-15T04:23:41.465Z,65.97
2022-11-15T04:27:05.595Z,63.42
2022-11-15T04:30:29.289Z,62.09
2022-11-15T04:33:53.616Z,60.99
2022-11-15T04:37:17.751Z,60.00
2022-11-15T04:40:41.706Z,58.03
2022-11-15T04:44:05.856Z,57.15
2022-11-15T04:47:30.433Z,56.59
2022-11-15T04:50:54.459Z,57.53
2022-11-15T04:54:18.261Z,59.07
2022-11-15T04:57:42.179Z,61.01
2022-11-15T05:01:10.184Z,60.00
2022-11-15T05:04:34.221Z,60.75
2022-11-15T05:07:58.698Z,65.95
2022-11-15T05:11:22.826Z,75.26
2022-11-15T05:14:47.074Z,72.28
2022-11-15T05:18:11.475Z,68.86
2022-11-15T05:21:35.903Z,66.41
2022-11-15T05:24:59.986Z,64.69
2022-11-15T05:28:23.896Z,63.52
2022-11-15T05:31:48.475Z,62.63
2022-11-15T05:35:15.239Z,61.95
2022-11-15T05:38:40.076Z,61.18
2022-11-15T05:42:06.682Z,60.67
2022-11-15T05:45:31.132Z,60.44
2022-11-15T05:48:55.924Z,60.09
2022-11-15T05:52:22.157Z,59.67
2022-11-15T05:55:46.533Z,57.09
2022-11-15T05:59:14.022Z,56.07
2022-11-15T06:02:38.298Z,56.69
2022-11-15T06:06:02.352Z,57.82
2022-11-15T06:09:29.154Z,64.40
2022-11-15T06:12:59.729Z,70.33
2022-11-15T06:16:24.123Z,66.50
2022-11-15T06:19:48.553Z,63.62
2022-11-15T06:23:12.939Z,60.71
2022-11-15T06:26:36.736Z,60.39
2022-11-15T06:30:00.787Z,59.78
2022-11-15T06:33:24.939Z,58.95
2022-11-15T06:36:48.953Z,55.89
2022-11-15T06:40:14.097Z,56.53
2022-11-15T06:43:38.744Z,56.02
2022-11-15T06:47:02.896Z,58.58
2022-11-15T06:50:27.407Z,61.53
2022-11-15T06:53:51.356Z,69.80
2022-11-15T06:57:15.126Z,70.23
2022-11-15T07:00:39.199Z,67.73
2022-11-15T07:04:03.432Z,65.85
2022-11-15T07:07:28.018Z,64.63
2022-11-15T07:10:52.694Z,62.85
2022-11-15T07:14:16.797Z,61.75
2022-11-15T07:17:40.712Z,60.66
2022-11-15T07:21:05.907Z,59.56
2022-11-15T07:24:30.404Z,56.01
2022-11-15T07:27:57.720Z,56.19
2022-11-15T07:31:23.474Z,56.90
2022-11-15T07:34:47.838Z,57.90
2022-11-15T07:38:11.783Z,58.07
2022-11-15T07:41:36.113Z,58.54
2022-11-15T07:45:00.268Z,66.91
2022-11-15T07:48:24.663Z,72.41
2022-11-15T07:51:48.690Z,70.45
2022-11-15T07:55:12.893Z,67.16
2022-11-15T07:58:37.748Z,64.14
2022-11-15T08:02:01.923Z,62.31
2022-11-15T08:05:25.951Z,61.32
2022-11-15T08:08:50.200Z,57.50
2022-11-15T08:12:14.128Z,56.33
2022-11-15T08:15:38.601Z,57.46
2022-11-15T08:19:03.920Z,58.22
2022-11-15T08:22:28.464Z,58.36
2022-11-15T08:25:52.281Z,59.61
2022-11-15T08:29:16.699Z,59.80
2022-11-15T08:32:40.590Z,63.99
2022-11-15T08:36:05.200Z,72.12
2022-11-15T08:39:29.091Z,70.24
2022-11-15T08:42:53.072Z,65.51
2022-11-15T08:46:17.620Z,63.43
2022-11-15T08:49:41.552Z,61.76
2022-11-15T08:53:08.263Z,60.41
2022-11-15T08:56:32.404Z,59.82
2022-11-15T08:59:56.574Z,57.63
2022-11-15T09:03:20.558Z,54.97
2022-11-15T09:06:44.827Z,58.51
2022-11-15T09:10:10.033Z,65.88
2022-11-15T09:13:34.849Z,65.94
2022-11-15T09:16:59.316Z,62.66
2022-11-15T09:20:23.553Z,59.24
2022-11-15T09:23:47.907Z,55.65
2022-11-15T09:27:11.898Z,57.65
2022-11-15T09:30:36.008Z,58.87
2022-11-15T09:34:00.320Z,60.02
2022-11-15T09:37:24.551Z,60.10
2022-11-15T09:40:51.475Z,64.62
2022-11-15T09:44:33.887Z,70.62
2022-11-15T09:48:08.568Z,68.30
2022-11-15T09:51:37.596Z,64.82
2022-11-15T09:54:54.675Z,62.55
2022-11-15T09:58:05.521Z,60.39
2022-11-15T10:01:16.784Z,57.58
2022-11-15T10:04:22.873Z,55.58
2022-11-15T10:07:29.727Z,56.97
2022-11-15T10:10:38.704Z,57.73
2022-11-15T10:13:46.442Z,57.90
2022-11-15T10:17:04.568Z,61.41
2022-11-15T10:20:14.752Z,67.89
2022-11-15T10:23:21.794Z,67.97
2022-11-15T10:26:27.287Z,64.62
2022-11-15T10:29:32.693Z,61.30
2022-11-15T10:32:38.517Z,60.51
2022-11-15T10:35:43.804Z,58.26
2022-11-15T10:38:59.366Z,54.95
2022-11-15T10:42:18.787Z,54.39
2022-11-15T10:45:30.003Z,55.19
2022-11-15T10:48:35.458Z,58.33
2022-11-15T10:51:43.048Z,59.96
2022-11-15T10:54:51.093Z,65.66
2022-11-15T10:57:57.836Z,67.90
2022-11-15T11:01:12.458Z,64.37
2022-11-15T11:04:19.735Z,60.68
2022-11-15T11:07:26.118Z,57.01
2022-11-15T11:14:13.242Z,55.22
2022-11-15T11:17:26.760Z,56.46
2022-11-15T11:20:35.969Z,64.56
2022-11-15T11:23:47.159Z,69.41
2022-11-15T11:26:59.661Z,66.76
2022-11-15T11:30:10.614Z,62.43
2022-11-15T11:33:19.519Z,58.48
2022-11-15T11:36:28.164Z,55.51
2022-11-15T11:39:39.978Z,56.22
2022-11-15T11:42:50.356Z,58.19
2022-11-15T11:46:07.103Z,58.45
2022-11-15T11:49:15.216Z,58.80
2022-11-15T11:52:23.943Z,59.41
2022-11-15T11:55:31.954Z,59.99
2022-11-15T11:58:39.555Z,60.53
2022-11-15T12:01:46.757Z,65.47
2022-11-15T12:04:54.132Z,70.71
2022-11-15T12:08:05.300Z,68.16
2022-11-15T12:11:12.482Z,63.64
2022-11-15T12:14:23.549Z,60.19
2022-11-15T12:17:33.126Z,56.11
2022-11-15T12:20:41.662Z,55.17
2022-11-15T12:23:49.918Z,55.39
2022-11-15T12:26:59.525Z,56.09
2022-11-15T12:30:11.012Z,56.37
2022-11-15T12:33:33.746Z,59.15
2022-11-15T12:36:41.164Z,59.39
2022-11-15T12:40:07.415Z,59.50
2022-11-15T12:43:32.590Z,63.91
2022-11-15T12:46:55.775Z,70.43
2022-11-15T12:50:01.362Z,69.10
2022-11-15T12:53:20.108Z,67.29
2022-11-15T12:56:28.733Z,65.20
2022-11-15T12:59:47.644Z,61.54
2022-11-15T13:03:12.980Z,58.68
2022-11-15T13:06:35.549Z,60.53
2022-11-15T13:09:57.436Z,66.14
2022-11-15T13:13:03.471Z,65.97
2022-11-15T13:16:09.579Z,63.15
2022-11-15T13:19:16.626Z,61.58
2022-11-15T13:22:39.511Z,60.72
2022-11-15T13:26:07.732Z,60.19
2022-11-15T13:29:19.596Z,58.31
2022-11-15T13:32:25.058Z,57.25
2022-11-15T13:35:33.304Z,57.76
2022-11-15T13:38:39.769Z,57.60
2022-11-15T13:41:49.470Z,57.56
2022-11-15T13:44:59.550Z,58.77
2022-11-15T13:48:07.283Z,60.32
2022-11-15T13:51:17.870Z,61.68
2022-11-15T13:54:32.624Z,69.83
2022-11-15T13:57:40.475Z,71.30
2022-11-15T14:00:47.526Z,68.72
2022-11-15T14:04:01.604Z,66.24
2022-11-15T14:07:18.345Z,63.53
2022-11-15T14:10:29.691Z,61.10
2022-11-15T14:13:35.566Z,60.15
2022-11-15T14:16:42.263Z,58.34
2022-11-15T14:19:49.925Z,56.10
2022-11-15T14:22:56.253Z,57.31
2022-11-15T14:26:01.978Z,59.05
2022-11-15T14:29:20.791Z,58.53
2022-11-15T14:32:27.549Z,58.30
2022-11-15T14:35:33.004Z,59.39
2022-11-15T14:38:38.663Z,69.85
2022-11-15T14:41:44.205Z,72.23
2022-11-15T14:44:49.895Z,71.71
2022-11-15T14:47:55.540Z,68.23
2022-11-15T14:51:04.715Z,65.47
2022-11-15T14:54:11.501Z,65.36
2022-11-15T14:57:17.028Z,65.35
2022-11-15T15:00:23.036Z,65.12
2022-11-15T15:03:28.441Z,63.80
2022-11-15T15:06:33.767Z,62.97
2022-11-15T15:09:41.302Z,62.90
2022-11-15T15:12:46.984Z,61.65
2022-11-15T15:15:53.204Z,60.88
2022-11-15T15:18:58.867Z,60.93
2022-11-15T15:22:04.415Z,62.21
2022-11-15T15:25:20.970Z,61.87
2022-11-15T15:28:30.020Z,62.05
2022-11-15T15:31:39.712Z,61.77
2022-11-15T15:34:45.596Z,61.12
2022-11-15T15:37:52.251Z,60.91
2022-11-15T15:40:57.847Z,60.80
2022-11-15T15:44:03.505Z,61.14
2022-11-15T15:47:12.232Z,60.72
2022-11-15T15:50:22.071Z,60.12
2022-11-15T15:53:27.674Z,59.85
2022-11-15T15:56:32.965Z,57.53
2022-11-15T15:59:38.469Z,57.35
2022-11-15T16:02:43.951Z,59.40
2022-11-15T16:05:49.353Z,64.92
2022-11-15T16:09:14.270Z,67.84
2022-11-15T16:12:23.244Z,67.27
2022-11-15T16:15:31.692Z,65.63
2022-11-15T16:18:39.690Z,64.82
2022-11-15T16:21:45.433Z,63.94
2022-11-15T16:24:50.693Z,63.59
2022-11-15T16:27:56.354Z,63.18
2022-11-15T16:31:05.908Z,62.65
2022-11-15T16:34:11.729Z,61.62
2022-11-15T16:37:23.438Z,62.44
2022-11-15T16:40:31.266Z,62.03
2022-11-15T16:43:36.642Z,61.64
2022-11-15T16:46:42.862Z,61.58
2022-11-15T16:49:48.266Z,61.44
2022-11-15T16:52:54.773Z,60.87
2022-11-15T16:56:00.288Z,61.11
2022-11-15T16:59:05.954Z,61.25
2022-11-15T17:02:12.983Z,61.03
2022-11-15T17:05:20.363Z,61.46
2022-11-15T17:08:26.193Z,61.39
2022-11-15T17:11:31.697Z,61.70
2022-11-15T17:14:37.195Z,61.55
2022-11-15T17:17:42.766Z,61.71
2022-11-15T17:20:48.069Z,60.87
2022-11-15T17:23:53.458Z,61.24
2022-11-15T17:26:59.125Z,61.33
2022-11-15T17:30:04.920Z,61.08
2022-11-15T17:33:10.335Z,60.86
2022-11-15T17:36:16.011Z,60.50
2022-11-15T17:39:23.794Z,59.49
2022-11-15T17:42:29.333Z,58.09
2022-11-15T17:45:35.276Z,59.52
2022-11-15T17:48:40.943Z,60.52
2022-11-15T17:51:49.975Z,67.05
2022-11-15T17:54:55.857Z,70.09
2022-11-15T17:58:01.227Z,67.79
2022-11-15T18:01:10.477Z,67.08
2022-11-15T18:04:16.320Z,66.95
2022-11-15T18:07:21.959Z,65.90
2022-11-15T18:10:30.567Z,64.41
2022-11-15T18:13:36.253Z,63.47
2022-11-15T18:16:42.104Z,63.22
2022-11-15T18:19:48.640Z,62.89
2022-11-15T18:22:55.025Z,62.99
2022-11-15T18:26:00.908Z,62.71
2022-11-15T18:29:09.820Z,62.30
2022-11-15T18:32:17.849Z,61.61
2022-11-15T18:35:23.677Z,61.89
2022-11-15T18:38:30.899Z,62.16
2022-11-15T18:41:36.542Z,61.97
2022-11-15T18:44:41.968Z,62.27
2022-11-15T18:47:47.583Z,61.85
2022-11-15T18:50:54.068Z,61.35
2022-11-15T18:54:01.655Z,61.64
2022-11-15T18:57:06.906Z,61.62
2022-11-15T19:00:13.487Z,61.54
2022-11-15T19:03:23.454Z,62.13
2022-11-15T19:06:30.227Z,62.56
2022-11-15T19:09:35.632Z,62.54
2022-11-15T19:12:40.871Z,62.56
2022-11-15T19:15:46.948Z,62.55
2022-11-15T19:18:55.429Z,62.89
2022-11-15T19:22:01.752Z,62.93
2022-11-15T19:25:08.650Z,63.29
2022-11-15T19:28:13.926Z,63.02
2022-11-15T19:31:19.878Z,62.39
2022-11-15T19:34:25.224Z,62.51
2022-11-15T19:37:30.645Z,62.63
2022-11-15T19:40:35.913Z,62.40
2022-11-15T19:43:41.731Z,62.49
2022-11-15T19:46:47.443Z,62.98
2022-11-15T19:49:52.800Z,62.74
2022-11-15T19:52:59.581Z,62.25
2022-11-15T19:56:06.237Z,62.19
2022-11-15T19:59:13.692Z,62.42
2022-11-15T20:02:18.917Z,61.87
2022-11-15T20:05:24.370Z,62.04
2022-11-15T20:08:29.794Z,62.27
2022-11-15T20:11:38.094Z,62.36
2022-11-15T20:14:45.910Z,62.03
2022-11-15T20:17:51.445Z,62.78
2022-11-15T20:20:58.492Z,63.09
2022-11-15T20:24:04.132Z,63.47
2022-11-15T20:27:09.499Z,63.41
2022-11-15T20:30:15.182Z,63.83
2022-11-15T20:33:20.987Z,64.31
2022-11-15T20:36:26.278Z,64.36
2022-11-15T20:39:31.777Z,64.14
2022-11-15T20:42:37.101Z,64.78
2022-11-15T20:45:43.946Z,65.41
2022-11-15T20:48:49.412Z,65.24
2022-11-15T20:51:54.794Z,65.02
2022-11-15T20:55:00.167Z,64.97
2022-11-15T20:58:05.806Z,64.92
2022-11-15T21:01:15.274Z,64.79
2022-11-15T21:04:21.084Z,64.59
2022-11-15T21:07:26.804Z,64.46
2022-11-15T21:10:49.972Z,63.92
2022-11-15T21:13:55.192Z,64.00
2022-11-15T21:17:00.749Z,63.70
2022-11-15T21:20:07.136Z,64.02
2022-11-15T21:23:13.116Z,63.81
2022-11-15T21:26:18.486Z,63.65
2022-11-15T21:29:23.864Z,63.86
2022-11-15T21:32:32.562Z,63.84
2022-11-15T21:35:37.934Z,63.64
2022-11-15T21:38:43.167Z,63.31
2022-11-15T21:41:48.426Z,63.40
2022-11-15T21:44:53.789Z,63.39
2022-11-15T21:48:01.909Z,63.33
2022-11-15T21:51:08.134Z,63.23
2022-11-15T21:54:13.443Z,63.19
2022-11-15T21:57:21.240Z,63.45
2022-11-15T22:00:44.207Z,63.54
2022-11-15T22:03:49.640Z,63.67
2022-11-15T22:06:55.356Z,63.68
2022-11-15T22:10:01.171Z,64.11
2022-11-15T22:13:07.253Z,63.77
2022-11-15T22:16:13.275Z,63.30
2022-11-15T22:19:19.327Z,63.15
2022-11-15T22:22:25.463Z,63.18
2022-11-15T22:25:31.493Z,63.12
2022-11-15T22:28:39.625Z,63.23
2022-11-15T22:31:45.510Z,63.24
2022-11-15T22:34:51.638Z,62.94
2022-11-15T22:37:57.652Z,62.92
2022-11-15T22:41:03.830Z,62.92
2022-11-15T22:44:09.775Z,62.48
2022-11-15T22:47:15.797Z,62.27
2022-11-15T22:50:23.001Z,62.26
2022-11-15T22:53:29.223Z,62.64
2022-11-15T22:56:35.182Z,62.85
2022-11-15T22:59:42.196Z,63.07
2022-11-15T23:02:53.165Z,63.26
2022-11-15T23:06:03.881Z,63.17
2022-11-15T23:09:10.120Z,63.02
2022-11-15T23:12:33.380Z,63.40
2022-11-15T23:15:56.961Z,63.22
2022-11-15T23:19:06.437Z,62.98
2022-11-15T23:22:30.120Z,63.66
2022-11-15T23:25:36.096Z,64.24
2022-11-15T23:28:42.143Z,64.17
2022-11-15T23:32:05.933Z,64.36
2022-11-15T23:35:12.139Z,64.42
2022-11-15T23:38:21.142Z,64.23
2022-11-15T23:41:27.138Z,64.56
2022-11-15T23:44:33.145Z,64.32
2022-11-15T23:47:39.270Z,64.19
2022-11-15T23:50:47.667Z,64.11
2022-11-15T23:53:53.614Z,64.39
2022-11-15T23:56:59.770Z,64.40
